Time;durP1;ratioP1;P1;durP2;ratioP2;P2;SDS_P1;SDS_P2;PMS_P1;PMS_P2;Temp;Humidity;BMP_temperature;BMP_pressure;BME280_temperature;BME280_humidity;BME280_pressure;Samples;Min_cycle;Max_cycle;Signal;HPM_P1;HPM_P2
2023/10/14 00:02:01;;;;;;;19.17;6.45;;;15.40;99.90;;;;;;5059315;28;20043;-64
2023/10/14 00:04:28;;;;;;;19.05;7.10;;;15.50;99.90;;;;;;5063523;28;20053;-64
2023/10/14 00:06:55;;;;;;;14.80;6.78;;;15.50;99.90;;;;;;5059699;28;20041;-64
2023/10/14 00:09:24;;;;;;;13.93;6.18;;;15.60;99.90;;;;;;5062670;28;20745;-65
2023/10/14 00:11:54;;;;;;;17.90;6.35;;;15.60;99.90;;;;;;5059351;28;20495;-65
2023/10/14 00:14:23;;;;;;;16.40;6.72;;;15.60;99.90;;;;;;5064014;28;20043;-64
2023/10/14 00:16:49;;;;;;;20.75;5.93;;;15.60;99.90;;;;;;5057290;28;20566;-65
2023/10/14 00:19:18;;;;;;;20.38;6.13;;;15.60;99.90;;;;;;5050150;28;20102;-65
2023/10/14 00:21:45;;;;;;;14.75;6.30;;;15.60;99.90;;;;;;5046942;28;20049;-65
2023/10/14 00:24:15;;;;;;;13.73;5.82;;;15.60;99.90;;;;;;5050073;28;20056;-63
2023/10/14 00:26:48;;;;;;;14.35;4.97;;;15.60;99.90;;;;;;5045711;28;20064;-64
2023/10/14 00:29:19;;;;;;;16.13;6.10;;;15.60;99.90;;;;;;5050097;28;20106;-64
2023/10/14 00:31:49;;;;;;;11.73;5.75;;;15.60;99.90;;;;;;5044740;28;20072;-64
2023/10/14 00:34:21;;;;;;;14.48;6.00;;;15.60;99.90;;;;;;5049693;28;20060;-64
2023/10/14 00:36:47;;;;;;;17.42;5.97;;;15.60;99.90;;;;;;5047350;28;20091;-64
2023/10/14 00:39:13;;;;;;;;;;;15.60;99.90;;;;;;5050412;28;20033;-64
2023/10/14 00:41:39;;;;;;;20.05;5.60;;;15.60;99.90;;;;;;5045780;28;19921;-64
2023/10/14 00:44:05;;;;;;;22.88;6.35;;;15.60;99.90;;;;;;5050078;28;20728;-65
2023/10/14 00:46:32;;;;;;;;;;;15.70;99.90;;;;;;5037753;28;20049;-63
2023/10/14 00:49:05;;;;;;;20.25;6.43;;;15.70;99.90;;;;;;5049516;28;19924;-64
2023/10/14 00:51:34;;;;;;;18.20;5.72;;;15.70;99.90;;;;;;5041124;28;20548;-65
2023/10/14 00:54:03;;;;;;;15.20;6.05;;;15.70;99.90;;;;;;5049813;28;20836;-64
2023/10/14 00:56:31;;;;;;;18.45;6.05;;;15.70;99.90;;;;;;5049955;28;20053;-64
2023/10/14 00:59:04;;;;;;;18.23;6.65;;;15.70;99.90;;;;;;5042065;28;20043;-65
2023/10/14 01:01:31;;;;;;;22.30;6.55;;;15.70;99.90;;;;;;5043752;28;20041;-64
2023/10/14 01:14:58;;;;;;;29.63;6.80;;;15.80;99.90;;;;;;5048380;28;20048;-64
2023/10/14 01:17:30;;;;;;;15.40;5.95;;;15.90;99.90;;;;;;5045350;28;20487;-64
2023/10/14 01:20:17;;;;;;;25.73;6.85;;;15.90;99.90;;;;;;5047212;28;20052;-64
2023/10/14 01:22:46;;;;;;;14.60;5.90;;;15.90;99.90;;;;;;5042454;28;20048;-64
2023/10/14 01:25:15;;;;;;;19.55;6.10;;;15.90;99.90;;;;;;5048608;28;20032;-63
2023/10/14 01:27:44;;;;;;;16.77;6.15;;;15.90;99.90;;;;;;5044632;28;20044;-64
2023/10/14 01:30:19;;;;;;;15.50;5.55;;;15.90;99.90;;;;;;5048281;28;20455;-65
2023/10/14 01:37:56;;;;;;;18.10;6.20;;;16.00;99.90;;;;;;5041527;28;20045;-63
2023/10/14 01:42:58;;;;;;;15.98;6.18;;;16.00;99.90;;;;;;5044540;28;20048;-64
2023/10/14 01:45:31;;;;;;;19.42;5.60;;;16.10;99.90;;;;;;5049056;28;20032;-63
2023/10/14 01:50:38;;;;;;;16.83;4.80;;;16.00;99.90;;;;;;5048304;28;20044;-64
2023/10/14 01:53:11;;;;;;;14.10;5.35;;;16.10;99.90;;;;;;5044804;28;20452;-64
2023/10/14 01:55:38;;;;;;;18.10;5.03;;;16.10;99.90;;;;;;5048999;28;20044;-64
2023/10/14 01:58:08;;;;;;;23.88;5.25;;;16.10;99.90;;;;;;5042077;28;20049;-64
2023/10/14 02:00:46;;;;;;;18.65;5.88;;;16.10;99.90;;;;;;5047197;28;22191;-64
2023/10/14 02:03:12;;;;;;;13.55;4.57;;;16.00;99.90;;;;;;5046332;28;20052;-63
2023/10/14 02:05:40;;;;;;;;;;;16.00;99.90;;;;;;5048186;28;20037;-63
2023/10/14 02:08:15;;;;;;;12.20;4.50;;;16.00;99.90;;;;;;5043151;28;19982;-64
2023/10/14 02:10:53;;;;;;;18.45;5.18;;;16.00;99.90;;;;;;5047260;28;20045;-65
2023/10/14 02:13:23;;;;;;;14.75;4.60;;;16.00;99.90;;;;;;5044934;28;20097;-65
2023/10/14 02:15:52;;;;;;;14.40;4.82;;;15.90;99.90;;;;;;5047236;28;20059;-65
2023/10/14 02:18:22;;;;;;;14.77;4.07;;;15.80;99.90;;;;;;5044428;28;20095;-64
2023/10/14 02:21:05;;;;;;;11.25;5.60;;;15.70;99.90;;;;;;5044711;28;20041;-65
2023/10/14 02:23:43;;;;;;;14.70;4.60;;;15.60;99.90;;;;;;5038666;28;20051;-64
2023/10/14 02:26:22;;;;;;;13.93;4.63;;;15.70;99.90;;;;;;5050751;28;20045;-63
2023/10/14 02:28:49;;;;;;;12.02;4.93;;;15.60;99.90;;;;;;5045741;28;20049;-64
2023/10/14 02:31:29;;;;;;;12.98;4.50;;;15.60;99.90;;;;;;5045292;28;20049;-65
2023/10/14 02:33:56;;;;;;;14.15;4.10;;;15.50;99.90;;;;;;5047536;28;20041;-65
2023/10/14 02:36:28;;;;;;;13.05;4.43;;;15.50;99.90;;;;;;5044831;28;20060;-64
2023/10/14 02:38:56;;;;;;;18.73;4.10;;;15.50;99.90;;;;;;5047203;28;20040;-64
2023/10/14 02:41:26;;;;;;;13.65;4.05;;;15.50;99.90;;;;;;5045377;28;20127;-64
2023/10/14 02:46:54;;;;;;;12.77;3.55;;;15.30;99.90;;;;;;5026848;28;20533;-64
2023/10/14 02:49:24;;;;;;;7.38;3.40;;;15.20;99.90;;;;;;5052960;28;20107;-64
2023/10/14 02:51:52;;;;;;;7.47;2.75;;;15.10;99.90;;;;;;5052102;28;20049;-64
2023/10/14 02:54:27;;;;;;;11.73;3.00;;;15.10;99.90;;;;;;5047819;28;20090;-64
2023/10/14 02:59:21;;;;;;;5.57;2.65;;;15.00;99.90;;;;;;5047809;28;20037;-64
2023/10/14 03:01:52;;;;;;;11.32;2.95;;;15.00;99.90;;;;;;5046811;28;20429;-64
2023/10/14 03:04:23;;;;;;;5.63;3.00;;;14.90;99.90;;;;;;5047786;28;20040;-64
2023/10/14 03:06:53;;;;;;;6.68;2.80;;;15.00;99.90;;;;;;5045194;28;20049;-64
2023/10/14 03:09:20;;;;;;;10.02;2.35;;;15.00;99.90;;;;;;5047481;28;20382;-64
2023/10/14 03:11:49;;;;;;;6.03;2.13;;;14.90;99.90;;;;;;5045430;28;20033;-64
2023/10/14 03:14:16;;;;;;;4.68;2.17;;;14.90;99.90;;;;;;5038978;28;20033;-63
2023/10/14 03:16:44;;;;;;;8.88;2.13;;;14.90;99.90;;;;;;5043274;28;20068;-64
2023/10/14 03:19:11;;;;;;;5.30;1.77;;;14.90;99.90;;;;;;5040184;28;20059;-63
2023/10/14 03:21:52;;;;;;;3.42;1.30;;;14.90;99.90;;;;;;5046651;28;20052;-64
2023/10/14 03:24:20;;;;;;;2.83;1.13;;;14.80;99.90;;;;;;5044257;28;20543;-65
2023/10/14 03:26:47;;;;;;;2.45;1.23;;;14.80;99.90;;;;;;5040907;28;20053;-64
2023/10/14 03:29:16;;;;;;;3.13;1.15;;;14.90;99.90;;;;;;5044009;28;20067;-65
2023/10/14 03:31:44;;;;;;;3.20;1.30;;;14.80;99.90;;;;;;5040927;28;20664;-65
2023/10/14 03:34:11;;;;;;;21.92;3.33;;;14.80;99.90;;;;;;5049526;28;20398;-64
2023/10/14 03:36:42;;;;;;;8.23;1.90;;;14.80;99.90;;;;;;5051283;28;20053;-64
2023/10/14 03:39:21;;;;;;;1.92;0.38;;;14.80;99.90;;;;;;5055741;28;20047;-64
2023/10/14 03:41:52;;;;;;;3.85;0.60;;;14.50;99.90;;;;;;5050180;28;20045;-64
2023/10/14 03:44:21;;;;;;;2.15;0.40;;;14.30;99.90;;;;;;5052711;28;20381;-64
2023/10/14 03:46:47;;;;;;;9.73;0.50;;;14.10;99.90;;;;;;5044166;28;20040;-64
2023/10/14 03:49:25;;;;;;;0.43;0.20;;;14.10;99.90;;;;;;5055238;28;20048;-64
2023/10/14 03:51:56;;;;;;;0.57;0.20;;;14.00;99.90;;;;;;5043551;28;20045;-64
2023/10/14 03:54:41;;;;;;;1.00;0.20;;;13.90;99.90;;;;;;5051392;28;20057;-64
2023/10/14 03:57:07;;;;;;;5.45;0.20;;;13.90;99.90;;;;;;5050839;28;20064;-64
2023/10/14 03:59:33;;;;;;;1.58;0.30;;;13.70;99.90;;;;;;5051357;28;20048;-64
2023/10/14 04:02:05;;;;;;;1.77;0.20;;;13.70;99.90;;;;;;5043929;28;20048;-65
2023/10/14 04:04:31;;;;;;;10.20;0.20;;;13.70;99.90;;;;;;5050207;28;20059;-64
2023/10/14 04:10:14;;;;;;;0.28;0.10;;;13.40;99.90;;;;;;5050293;28;20037;-64
2023/10/14 04:12:37;;;;;;;2.25;0.20;;;13.20;99.90;;;;;;5037671;28;20057;-64
2023/10/14 04:17:32;;;;;;;0.15;0.10;;;13.10;99.90;;;;;;5049189;28;20041;-64
2023/10/14 04:20:15;;;;;;;;;;;13.00;99.90;;;;;;5050882;28;20051;-64
2023/10/14 04:22:41;;;;;;;2.33;0.25;;;13.10;99.90;;;;;;5046503;28;19960;-64
2023/10/14 04:25:22;;;;;;;;;;;13.00;99.90;;;;;;5048760;28;20475;-64
2023/10/14 04:30:25;;;;;;;1.27;0.40;;;12.90;99.90;;;;;;5048630;28;20491;-64
2023/10/14 04:35:23;;;;;;;0.43;0.20;;;13.00;99.90;;;;;;5054591;28;20120;-64
2023/10/14 04:38:02;;;;;;;0.30;0.20;;;12.90;99.90;;;;;;5046023;28;20044;-64
2023/10/14 04:45:52;;;;;;;0.17;0.03;;;12.80;99.90;;;;;;5050074;28;20129;-64
2023/10/14 04:48:19;;;;;;;0.43;0.13;;;12.70;99.90;;;;;;5045623;28;20045;-64
2023/10/14 04:50:45;;;;;;;1.48;0.10;;;12.70;99.90;;;;;;5050616;28;20056;-64
2023/10/14 04:53:13;;;;;;;;;;;12.70;99.90;;;;;;5046963;28;20040;-64
2023/10/14 04:55:44;;;;;;;0.45;0.13;;;12.70;99.90;;;;;;5049336;28;20377;-64
2023/10/14 05:00:48;;;;;;;0.10;0.10;;;12.70;99.90;;;;;;5048414;28;22836;-64
2023/10/14 05:03:24;;;;;;;0.30;0.10;;;12.70;99.90;;;;;;5044988;28;20483;-64
2023/10/14 05:05:55;;;;;;;0.88;0.20;;;12.70;99.90;;;;;;5049496;28;20080;-64
2023/10/14 05:08:22;;;;;;;0.65;0.10;;;12.60;99.90;;;;;;5046699;28;20181;-64
2023/10/14 05:10:50;;;;;;;1.08;0.47;;;12.50;99.90;;;;;;5045269;28;20088;-64
2023/10/14 05:13:19;;;;;;;0.45;0.10;;;12.40;99.90;;;;;;5040119;28;20044;-64
2023/10/14 05:15:53;;;;;;;0.85;0.10;;;12.40;99.90;;;;;;5046359;28;20056;-64
2023/10/14 05:18:35;;;;;;;0.40;0.15;;;12.40;99.90;;;;;;5042397;28;20044;-65
2023/10/14 05:21:12;;;;;;;1.08;0.28;;;12.30;99.90;;;;;;5045956;28;20043;-64
2023/10/14 05:23:41;;;;;;;0.50;0.20;;;12.30;99.90;;;;;;5045872;28;20412;-64
2023/10/14 05:26:07;;;;;;;0.82;0.32;;;12.30;99.90;;;;;;5044161;28;20041;-64
2023/10/14 05:28:36;;;;;;;2.00;0.32;;;12.00;99.90;;;;;;5044818;28;20404;-64
2023/10/14 05:31:08;;;;;;;;;;;11.80;99.90;;;;;;5049137;28;20033;-65
2023/10/14 05:33:35;;;;;;;2.78;0.43;;;11.70;99.90;;;;;;5045024;28;19923;-65
2023/10/14 05:36:05;;;;;;;1.58;0.40;;;11.60;99.90;;;;;;5040795;28;20045;-65
2023/10/14 05:38:30;;;;;;;1.83;0.40;;;11.60;99.90;;;;;;5044895;28;20037;-65
2023/10/14 05:41:00;;;;;;;;;;;11.60;99.90;;;;;;5045588;28;20041;-64
2023/10/14 05:43:26;;;;;;;1.80;0.65;;;11.60;99.90;;;;;;5046546;28;19916;-64
2023/10/14 05:45:52;;;;;;;10.07;1.05;;;11.50;99.90;;;;;;5047421;28;20056;-65
2023/10/14 05:48:19;;;;;;;6.47;1.10;;;11.40;99.90;;;;;;5043556;28;20032;-65
2023/10/14 05:50:44;;;;;;;4.03;1.08;;;11.20;99.90;;;;;;5046031;28;20044;-65
2023/10/14 05:53:12;;;;;;;;;;;11.20;99.90;;;;;;5045598;28;20037;-65
2023/10/14 05:55:39;;;;;;;7.38;1.92;;;11.10;99.90;;;;;;5044016;28;19920;-65
2023/10/14 05:58:07;;;;;;;11.13;2.35;;;10.90;99.90;;;;;;5043602;28;20045;-65
2023/10/14 06:00:34;;;;;;;15.50;1.60;;;11.00;99.90;;;;;;5044328;28;20047;-64
2023/10/14 06:03:00;;;;;;;12.10;1.92;;;10.80;99.90;;;;;;5043463;28;20041;-64
2023/10/14 06:05:27;;;;;;;;;;;10.80;99.90;;;;;;5047297;28;20179;-64
2023/10/14 06:08:16;;;;;;;11.13;1.73;;;10.80;99.90;;;;;;5045836;28;20170;-65
2023/10/14 06:10:42;;;;;;;8.23;1.77;;;10.80;99.90;;;;;;5046410;28;20128;-63
2023/10/14 06:13:09;;;;;;;8.38;1.88;;;10.80;99.90;;;;;;5047487;28;20037;-64
2023/10/14 06:15:42;;;;;;;11.50;2.10;;;10.70;99.90;;;;;;5047725;28;20037;-64
2023/10/14 06:18:14;;;;;;;7.38;2.03;;;10.60;99.90;;;;;;5043817;28;20041;-63
2023/10/14 06:20:45;;;;;;;8.18;2.42;;;10.60;99.90;;;;;;5045865;28;20033;-64
2023/10/14 06:23:11;;;;;;;8.63;2.28;;;10.50;99.90;;;;;;5046985;28;20040;-64
2023/10/14 06:25:38;;;;;;;;;;;10.50;99.90;;;;;;5048426;28;20037;-62
2023/10/14 06:28:05;;;;;;;7.28;2.38;;;10.50;99.90;;;;;;5046265;28;19916;-64
2023/10/14 06:30:31;;;;;;;10.68;2.35;;;10.50;99.90;;;;;;5046456;28;20044;-63
2023/10/14 06:33:03;;;;;;;;;;;10.50;99.90;;;;;;5043654;28;20391;-62
2023/10/14 06:35:33;;;;;;;10.70;2.53;;;10.40;99.90;;;;;;5050217;28;19924;-63
2023/10/14 06:37:59;;;;;;;7.43;2.30;;;10.30;99.90;;;;;;5047322;28;20044;-63
2023/10/14 06:40:32;;;;;;;10.23;2.40;;;10.30;99.90;;;;;;5047581;28;20049;-60
2023/10/14 06:43:00;;;;;;;11.50;2.83;;;10.30;99.90;;;;;;5046237;28;20076;-64
2023/10/14 06:45:31;;;;;;;9.05;1.98;;;10.30;99.90;;;;;;5047219;28;20123;-63
2023/10/14 06:47:58;;;;;;;17.45;2.55;;;10.40;99.90;;;;;;5040761;28;20037;-63
2023/10/14 06:50:26;;;;;;;10.45;2.47;;;10.40;99.90;;;;;;5041321;28;20048;-64
2023/10/14 06:52:58;;;;;;;14.88;3.03;;;10.40;99.90;;;;;;5042963;28;20052;-64
2023/10/14 06:55:33;;;;;;;15.18;2.55;;;10.40;99.90;;;;;;5044009;28;20041;-64
2023/10/14 06:57:59;;;;;;;11.10;3.03;;;10.50;99.90;;;;;;5038884;28;20120;-64
2023/10/14 07:00:29;;;;;;;;;;;10.50;99.90;;;;;;5044624;28;20127;-64
2023/10/14 07:02:57;;;;;;;11.82;3.08;;;10.50;99.90;;;;;;5048110;28;19927;-64
2023/10/14 07:05:23;;;;;;;18.75;3.17;;;10.40;99.90;;;;;;5046872;28;20045;-64
2023/10/14 07:07:49;;;;;;;14.25;3.47;;;10.30;99.90;;;;;;5045383;28;20128;-63
2023/10/14 07:10:15;;;;;;;14.23;3.15;;;10.40;99.90;;;;;;5046882;28;20114;-64
2023/10/14 07:12:42;;;;;;;13.07;2.70;;;10.50;99.90;;;;;;5046241;28;20485;-65
2023/10/14 07:15:12;;;;;;;9.20;2.95;;;10.60;99.90;;;;;;5046107;28;20116;-64
2023/10/14 07:17:42;;;;;;;7.63;2.60;;;10.50;99.90;;;;;;5045365;28;20102;-63
2023/10/14 07:20:11;;;;;;;13.15;3.00;;;10.40;99.90;;;;;;5046568;28;20124;-62
2023/10/14 07:22:42;;;;;;;13.20;4.03;;;10.40;99.90;;;;;;5044682;28;20073;-63
2023/10/14 07:25:11;;;;;;;13.00;3.50;;;10.40;99.90;;;;;;5045274;28;20114;-63
2023/10/14 07:27:39;;;;;;;8.68;2.67;;;10.40;99.90;;;;;;5044680;28;20037;-63
2023/10/14 07:30:13;;;;;;;7.85;2.40;;;10.50;99.90;;;;;;5045386;28;20037;-64
2023/10/14 07:32:47;;;;;;;8.18;2.10;;;10.50;99.90;;;;;;5043141;28;20124;-64
2023/10/14 07:35:14;;;;;;;17.92;2.78;;;10.50;99.90;;;;;;5049060;28;20044;-63
2023/10/14 07:37:49;;;;;;;12.88;2.20;;;10.60;99.90;;;;;;5046747;28;20068;-63
2023/10/14 07:40:23;;;;;;;11.98;2.47;;;10.80;99.90;;;;;;5048038;28;20065;-63
2023/10/14 07:42:56;;;;;;;11.70;2.63;;;10.80;99.90;;;;;;5048307;28;20491;-63
2023/10/14 07:45:28;;;;;;;7.85;2.15;;;10.90;99.90;;;;;;5048022;28;20109;-63
2023/10/14 07:47:56;;;;;;;13.95;2.30;;;10.90;99.90;;;;;;5046486;28;20048;-63
2023/10/14 07:50:22;;;;;;;19.45;2.88;;;10.80;99.90;;;;;;5051034;28;20120;-63
2023/10/14 07:52:48;;;;;;;11.13;2.85;;;10.80;99.90;;;;;;5048303;28;20052;-64
2023/10/14 07:55:22;;;;;;;;;;;10.70;99.90;;;;;;5051541;28;20037;-64
2023/10/14 07:57:51;;;;;;;8.88;2.42;;;10.60;99.90;;;;;;5046944;28;19917;-64
2023/10/14 08:00:17;;;;;;;6.45;2.50;;;10.60;99.90;;;;;;5051864;28;20084;-63
2023/10/14 08:02:43;;;;;;;14.68;3.20;;;10.60;99.90;;;;;;5044798;28;20393;-63
2023/10/14 08:05:09;;;;;;;;;;;10.60;99.90;;;;;;5049305;28;20025;-64
2023/10/14 08:07:44;;;;;;;8.20;2.77;;;10.60;99.90;;;;;;5048628;28;19920;-63
2023/10/14 08:10:17;;;;;;;11.57;3.28;;;10.60;99.90;;;;;;5048287;28;20492;-63
2023/10/14 08:12:47;;;;;;;15.48;2.35;;;10.60;99.90;;;;;;5046382;28;20033;-64
2023/10/14 08:15:13;;;;;;;16.85;3.53;;;10.70;99.90;;;;;;5050600;28;20040;-63
2023/10/14 08:17:42;;;;;;;9.32;2.53;;;10.60;99.90;;;;;;5047335;28;20041;-63
2023/10/14 08:20:16;;;;;;;17.92;2.90;;;10.70;99.90;;;;;;5050281;28;20049;-63
2023/10/14 08:22:45;;;;;;;8.50;2.60;;;10.70;99.90;;;;;;5047142;28;20128;-63
2023/10/14 08:25:12;;;;;;;10.90;2.78;;;10.70;99.90;;;;;;5050183;28;20124;-63
2023/10/14 08:27:38;;;;;;;13.02;2.58;;;10.60;99.90;;;;;;5047518;28;20074;-63
2023/10/14 08:30:10;;;;;;;15.18;3.33;;;10.60;99.90;;;;;;5049258;28;20033;-63
2023/10/14 08:32:46;;;;;;;14.00;2.80;;;10.50;99.90;;;;;;5045665;28;20404;-63
2023/10/14 08:35:16;;;;;;;10.55;2.40;;;10.50;99.90;;;;;;5047473;28;20124;-63
2023/10/14 08:37:51;;;;;;;16.38;2.60;;;10.60;99.90;;;;;;5047324;28;20052;-64
2023/10/14 08:40:22;;;;;;;17.50;3.15;;;10.70;99.90;;;;;;5049887;28;20040;-63
2023/10/14 08:42:57;;;;;;;12.73;2.83;;;10.60;99.90;;;;;;5047010;28;20489;-63
2023/10/14 08:45:28;;;;;;;18.55;3.08;;;10.60;99.90;;;;;;5046462;28;20509;-64
2023/10/14 08:47:58;;;;;;;12.57;2.72;;;10.70;99.90;;;;;;5044886;28;20047;-63
2023/10/14 08:50:25;;;;;;;14.40;2.78;;;10.70;99.90;;;;;;5048005;28;20036;-63
2023/10/14 08:52:56;;;;;;;17.38;2.97;;;10.80;99.90;;;;;;5042162;28;20477;-63
2023/10/14 08:55:28;;;;;;;9.88;2.67;;;10.80;99.90;;;;;;5041018;28;20580;-63
2023/10/14 08:58:01;;;;;;;13.80;2.40;;;10.90;99.90;;;;;;5045029;28;20690;-63
2023/10/14 09:00:29;;;;;;;14.55;2.97;;;10.90;99.90;;;;;;5045159;28;20041;-63
2023/10/14 09:02:56;;;;;;;11.68;2.35;;;10.90;99.90;;;;;;5046498;28;20052;-63
2023/10/14 09:05:23;;;;;;;10.88;3.20;;;11.00;99.90;;;;;;5046986;28;20040;-63
2023/10/14 09:07:50;;;;;;;20.00;2.85;;;11.20;99.90;;;;;;5045462;28;20071;-63
2023/10/14 09:10:20;;;;;;;10.85;2.67;;;11.10;99.90;;;;;;5049905;28;20044;-63
2023/10/14 09:13:00;;;;;;;20.58;2.83;;;11.00;99.90;;;;;;5045796;28;20044;-63
2023/10/14 09:15:27;;;;;;;11.80;1.92;;;11.10;99.90;;;;;;5049329;28;20045;-63
2023/10/14 09:17:56;;;;;;;8.90;2.10;;;11.20;99.90;;;;;;5044179;28;20095;-64
2023/10/14 09:20:35;;;;;;;12.68;2.22;;;11.50;99.90;;;;;;5048152;28;20048;-63
2023/10/14 09:23:31;;;;;;;12.90;2.40;;;11.60;99.90;;;;;;5044608;28;20409;-63
2023/10/14 09:26:01;;;;;;;16.63;3.25;;;11.50;99.90;;;;;;5049044;28;20077;-63
2023/10/14 09:28:34;;;;;;;11.35;2.47;;;11.40;99.90;;;;;;5045971;28;20040;-64
2023/10/14 09:31:08;;;;;;;13.60;2.78;;;11.30;99.90;;;;;;5044408;28;20044;-63
2023/10/14 09:33:41;;;;;;;13.10;2.47;;;11.30;99.90;;;;;;5046364;28;20163;-63
2023/10/14 09:36:14;;;;;;;13.43;2.45;;;11.40;99.90;;;;;;5045958;28;20526;-63
2023/10/14 09:38:41;;;;;;;14.77;2.25;;;11.60;99.90;;;;;;5047246;28;20194;-63
2023/10/14 09:41:10;;;;;;;11.10;2.65;;;11.50;99.90;;;;;;5043972;28;20049;-63
2023/10/14 09:43:40;;;;;;;11.98;2.47;;;11.50;99.90;;;;;;5045271;28;20121;-63
2023/10/14 09:46:12;;;;;;;15.57;2.88;;;11.50;99.90;;;;;;5047688;28;20314;-63
2023/10/14 09:48:39;;;;;;;11.75;2.80;;;11.70;99.90;;;;;;5042417;28;21374;-64
2023/10/14 09:51:07;;;;;;;11.70;2.05;;;11.90;99.90;;;;;;5047600;28;20065;-63
2023/10/14 09:53:34;;;;;;;11.18;2.40;;;12.10;99.90;;;;;;5045895;28;20566;-63
2023/10/14 09:56:06;;;;;;;14.77;2.03;;;12.30;99.90;;;;;;5038757;28;20748;-63
2023/10/14 09:58:42;;;;;;;17.88;4.00;;;12.40;99.90;;;;;;5046742;28;20045;-63
2023/10/14 10:01:15;;;;;;;21.23;1.90;;;12.40;99.90;;;;;;5043251;28;20039;-63
2023/10/14 10:03:45;;;;;;;11.48;2.42;;;12.60;99.90;;;;;;5046347;28;20056;-62
2023/10/14 10:06:33;;;;;;;16.77;3.38;;;12.60;99.90;;;;;;5046182;28;20037;-64
2023/10/14 10:09:36;;;;;;;12.77;2.45;;;12.50;99.90;;;;;;5048074;28;20037;-63
2023/10/14 10:12:10;;;;;;;15.95;2.75;;;12.40;99.90;;;;;;5046834;28;20516;-62
2023/10/14 10:14:46;;;;;;;11.35;1.83;;;12.20;99.90;;;;;;5048148;28;20520;-63
2023/10/14 10:17:15;;;;;;;11.35;2.22;;;12.40;99.90;;;;;;5045016;28;20040;-63
2023/10/14 10:20:08;;;;;;;10.93;2.42;;;12.60;99.90;;;;;;5041766;28;20048;-63
2023/10/14 10:22:43;;;;;;;17.58;2.83;;;13.10;99.90;;;;;;5043638;28;20544;-63
2023/10/14 10:25:15;;;;;;;21.30;3.22;;;12.90;99.90;;;;;;5042497;28;20099;-63
2023/10/14 10:27:42;;;;;;;14.75;2.40;;;12.50;99.90;;;;;;5042949;28;20120;-63
2023/10/14 10:30:12;;;;;;;10.52;2.08;;;12.40;99.90;;;;;;5042669;28;20175;-63
2023/10/14 10:32:38;;;;;;;14.05;2.60;;;12.10;99.90;;;;;;5043030;28;20093;-63
2023/10/14 10:35:07;;;;;;;11.02;2.47;;;12.00;99.90;;;;;;5043282;28;20489;-63
2023/10/14 10:37:55;;;;;;;12.48;2.58;;;11.90;99.90;;;;;;5042376;28;20037;-63
2023/10/14 10:40:25;;;;;;;8.63;2.10;;;11.70;99.90;;;;;;5043093;28;20774;-61
2023/10/14 10:43:11;;;;;;;11.15;1.90;;;11.60;99.90;;;;;;5042842;28;20102;-63
2023/10/14 10:45:40;;;;;;;16.15;2.38;;;11.60;99.90;;;;;;5047591;28;20041;-61
2023/10/14 10:48:07;;;;;;;12.82;2.13;;;11.60;99.90;;;;;;5041762;28;20052;-60
2023/10/14 10:50:41;;;;;;;10.75;2.00;;;11.60;99.90;;;;;;5043110;28;20037;-61
2023/10/14 10:53:07;;;;;;;17.80;2.35;;;11.50;99.90;;;;;;5045219;28;20040;-62
2023/10/14 10:55:36;;;;;;;;;;;11.50;99.90;;;;;;5045699;28;20131;-62
2023/10/14 10:58:03;;;;;;;33.63;3.47;;;11.50;99.90;;;;;;5039949;28;19916;-63
2023/10/14 11:00:32;;;;;;;15.23;2.67;;;11.70;99.90;;;;;;5046515;28;20127;-61
2023/10/14 11:03:00;;;;;;;8.55;2.22;;;11.90;99.90;;;;;;5045078;28;20036;-62
2023/10/14 11:05:26;;;;;;;14.57;2.85;;;12.00;99.90;;;;;;5051590;28;20045;-62
2023/10/14 11:07:54;;;;;;;12.40;2.75;;;12.20;99.90;;;;;;5041107;28;20084;-62
2023/10/14 11:10:27;;;;;;;11.60;2.53;;;12.50;99.90;;;;;;5047422;28;20053;-63
2023/10/14 11:12:57;;;;;;;15.50;2.67;;;12.90;99.90;;;;;;5042946;28;20045;-62
2023/10/14 11:15:27;;;;;;;8.48;1.88;;;13.10;99.90;;;;;;5047263;28;20047;-63
2023/10/14 11:17:56;;;;;;;16.48;2.72;;;13.20;99.90;;;;;;5042243;28;20057;-63
2023/10/14 11:20:24;;;;;;;13.43;2.75;;;13.20;99.90;;;;;;5040604;28;20045;-63
2023/10/14 11:22:50;;;;;;;17.05;2.75;;;13.20;99.90;;;;;;5042996;28;20136;-63
2023/10/14 11:25:19;;;;;;;11.77;1.90;;;13.20;99.90;;;;;;5044108;28;20052;-62
2023/10/14 11:27:45;;;;;;;10.45;2.15;;;13.30;99.90;;;;;;5049175;28;20451;-62
2023/10/14 11:30:21;;;;;;;11.52;2.40;;;13.40;99.90;;;;;;5043841;28;20033;-62
2023/10/14 11:32:50;;;;;;;11.88;2.22;;;13.30;99.90;;;;;;5042082;28;20049;-62
2023/10/14 11:35:29;;;;;;;11.00;2.58;;;13.50;99.90;;;;;;5048074;28;20041;-63
2023/10/14 11:38:00;;;;;;;15.32;2.63;;;13.70;99.90;;;;;;5048599;28;20072;-62
2023/10/14 11:40:33;;;;;;;11.20;2.15;;;13.50;99.90;;;;;;5047130;28;20858;-62
2023/10/14 11:42:58;;;;;;;14.20;2.83;;;13.30;99.90;;;;;;5042401;28;20045;-62
2023/10/14 11:45:26;;;;;;;;;;;13.30;99.90;;;;;;5047946;28;20033;-63
2023/10/14 11:47:52;;;;;;;8.82;2.08;;;13.20;99.90;;;;;;5040356;28;19929;-62
2023/10/14 11:50:18;;;;;;;;;;;13.00;99.90;;;;;;5044227;28;20067;-62
2023/10/14 11:52:47;;;;;;;19.90;3.90;;;12.80;99.90;;;;;;5043301;28;20628;-61
2023/10/14 11:55:14;;;;;;;12.85;2.38;;;12.70;99.90;;;;;;5041997;28;20041;-62
2023/10/14 11:57:43;;;;;;;11.20;2.40;;;12.60;99.90;;;;;;5041322;28;20128;-62
2023/10/14 12:00:11;;;;;;;9.52;2.08;;;12.40;99.90;;;;;;5046299;28;20033;-62
2023/10/14 12:02:41;;;;;;;10.13;2.50;;;12.50;99.90;;;;;;5041363;28;20045;-62
2023/10/14 12:05:08;;;;;;;9.13;2.40;;;12.80;99.90;;;;;;5045875;28;20033;-62
2023/10/14 12:07:33;;;;;;;14.90;2.60;;;13.00;99.90;;;;;;5042011;28;20552;-62
2023/10/14 12:10:05;;;;;;;;;;;12.90;99.90;;;;;;5046473;28;20120;-62
2023/10/14 12:12:31;;;;;;;17.98;2.83;;;12.80;99.90;;;;;;5042928;28;19921;-62
2023/10/14 12:14:58;;;;;;;;;;;12.70;99.90;;;;;;5043707;28;20029;-63
2023/10/14 12:17:23;;;;;;;8.55;2.42;;;12.60;99.90;;;;;;5046586;28;19963;-62
2023/10/14 12:19:49;;;;;;;;;;;12.70;99.90;;;;;;5049770;28;20115;-63
2023/10/14 12:22:15;;;;;;;15.98;2.17;;;12.50;99.90;;;;;;5045945;28;19920;-63
2023/10/14 12:24:40;;;;;;;;;;;12.40;99.90;;;;;;5048949;28;20618;-62
2023/10/14 12:27:13;;;;;;;11.98;2.25;;;12.20;99.90;;;;;;5048185;28;20466;-62
2023/10/14 12:29:40;;;;;;;9.75;2.17;;;12.20;99.90;;;;;;5052976;28;20045;-62
2023/10/14 12:32:12;;;;;;;7.72;1.80;;;12.00;99.90;;;;;;5040397;28;20045;-63
2023/10/14 12:34:43;;;;;;;13.80;2.90;;;12.00;99.90;;;;;;5058623;28;20102;-62
2023/10/14 12:37:18;;;;;;;14.00;2.10;;;12.00;99.90;;;;;;5044648;28;20751;-62
2023/10/14 12:42:46;;;;;;;14.80;1.95;;;12.00;99.90;;;;;;5054735;28;20074;-62
2023/10/14 12:45:13;;;;;;;11.50;2.63;;;12.10;99.90;;;;;;5049351;28;20056;-62
2023/10/14 12:47:48;;;;;;;11.80;2.50;;;12.30;99.90;;;;;;5045741;28;20051;-60
2023/10/14 12:50:15;;;;;;;13.68;2.33;;;12.30;99.90;;;;;;5055744;28;20037;-62
2023/10/14 12:52:49;;;;;;;10.85;1.85;;;12.00;99.90;;;;;;5041063;28;20052;-62
2023/10/14 12:55:22;;;;;;;10.18;2.08;;;11.90;99.90;;;;;;5040517;28;20075;-63
2023/10/14 12:57:49;;;;;;;14.43;2.20;;;11.80;99.90;;;;;;5044021;28;20734;-62
2023/10/14 13:00:19;;;;;;;9.68;2.22;;;11.80;99.90;;;;;;5049054;28;20063;-62
2023/10/14 13:02:47;;;;;;;17.75;2.20;;;11.70;99.90;;;;;;5041115;28;20420;-63
2023/10/14 13:05:18;;;;;;;7.65;2.10;;;11.80;99.90;;;;;;5045615;28;20033;-63
2023/10/14 13:07:46;;;;;;;11.80;1.92;;;11.80;99.90;;;;;;5045927;28;20056;-62
2023/10/14 13:10:12;;;;;;;10.65;2.35;;;11.80;99.90;;;;;;5044840;28;21478;-62
2023/10/14 13:12:38;;;;;;;;;;;11.80;99.90;;;;;;5048732;28;20389;-63
2023/10/14 13:15:05;;;;;;;7.83;2.43;;;11.80;99.90;;;;;;5043312;28;19968;-63
2023/10/14 13:17:35;;;;;;;7.93;1.77;;;11.80;99.90;;;;;;5035738;28;20064;-62
2023/10/14 13:20:01;;;;;;;13.52;2.55;;;11.60;99.90;;;;;;5047285;28;20571;-62
2023/10/14 13:22:29;;;;;;;8.30;2.35;;;11.60;99.90;;;;;;5044799;28;20040;-62
2023/10/14 13:24:55;;;;;;;10.07;2.20;;;11.70;99.90;;;;;;5053459;28;20635;-62
2023/10/14 13:27:21;;;;;;;;;;;11.80;99.90;;;;;;5047551;28;20076;-62
2023/10/14 13:29:47;;;;;;;12.75;2.22;;;11.60;99.90;;;;;;5048970;28;19924;-62
2023/10/14 13:32:16;;;;;;;;;;;11.50;99.90;;;;;;5043647;28;20543;-62
2023/10/14 13:34:42;;;;;;;10.05;2.05;;;11.50;99.90;;;;;;5048831;28;19983;-62
2023/10/14 13:37:13;;;;;;;13.95;3.20;;;11.50;99.90;;;;;;5044012;28;20068;-62
2023/10/14 13:39:41;;;;;;;10.63;2.20;;;11.50;99.90;;;;;;5048741;28;20036;-62
2023/10/14 13:42:06;;;;;;;10.05;2.30;;;11.50;99.90;;;;;;5044299;28;20049;-63
2023/10/14 13:44:32;;;;;;;;;;;11.40;99.90;;;;;;5049587;28;20044;-62
2023/10/14 13:46:58;;;;;;;8.50;1.80;;;11.40;99.90;;;;;;5038029;28;19931;-63
2023/10/14 13:49:23;;;;;;;;;;;11.30;99.90;;;;;;5054486;28;20487;-63
2023/10/14 13:51:52;;;;;;;11.52;2.83;;;11.30;99.90;;;;;;5045371;28;19921;-63